createdAt,value
2022-09-12T00:00:44.738Z,14.46
2022-09-12T00:03:11.088Z,14.41
2022-09-12T00:05:45.858Z,14.25
2022-09-12T00:08:12.947Z,14.30
2022-09-12T00:10:40.648Z,14.27
2022-09-12T00:13:07.867Z,14.27
2022-09-12T00:15:44.556Z,14.22
2022-09-12T00:18:15.186Z,14.21
2022-09-12T00:20:43.604Z,14.04
2022-09-12T00:23:09.998Z,14.14
2022-09-12T00:25:42.431Z,14.22
2022-09-12T00:28:08.781Z,14.10
2022-09-12T00:30:35.135Z,14.02
2022-09-12T00:33:01.541Z,13.97
2022-09-12T00:35:27.909Z,13.98
2022-09-12T00:37:54.232Z,13.90
2022-09-12T00:40:20.776Z,13.86
2022-09-12T00:42:47.179Z,13.76
2022-09-12T00:45:29.953Z,13.75
2022-09-12T00:48:01.981Z,13.67
2022-09-12T00:50:29.203Z,13.64
2022-09-12T00:53:02.669Z,13.68
2022-09-12T00:55:39.040Z,13.63
2022-09-12T00:58:25.196Z,13.55
2022-09-12T01:00:51.648Z,13.50
2022-09-12T01:03:22.075Z,13.46
2022-09-12T01:06:06.513Z,13.38
2022-09-12T01:08:37.235Z,13.39
2022-09-12T01:11:05.676Z,13.17
2022-09-12T01:13:35.011Z,13.19
2022-09-12T01:16:05.906Z,13.30
2022-09-12T01:18:47.330Z,13.09
2022-09-12T01:21:34.682Z,13.29
2022-09-12T01:24:34.307Z,13.31
2022-09-12T01:27:24.845Z,13.35
2022-09-12T01:30:17.464Z,13.24
2022-09-12T01:33:19.065Z,13.31
2022-09-12T01:36:19.530Z,13.18
2022-09-12T01:38:59.325Z,13.24
2022-09-12T01:41:35.650Z,13.24
2022-09-12T01:44:14.858Z,13.23
2022-09-12T01:46:44.043Z,13.20
2022-09-12T01:49:16.491Z,13.08
2022-09-12T01:51:48.300Z,13.11
2022-09-12T01:54:27.032Z,13.05
2022-09-12T01:56:57.722Z,12.86
2022-09-12T01:59:39.386Z,12.99
2022-09-12T02:02:16.924Z,13.04
2022-09-12T02:04:52.616Z,13.00
2022-09-12T02:07:27.390Z,13.00
2022-09-12T02:10:14.576Z,12.97
2022-09-12T02:13:08.561Z,12.94
2022-09-12T02:15:42.076Z,12.94
2022-09-12T02:18:12.299Z,12.89
2022-09-12T02:20:49.203Z,12.86
2022-09-12T02:23:22.326Z,12.78
2022-09-12T02:25:54.135Z,12.75
2022-09-12T02:28:31.881Z,12.84
2022-09-12T02:31:22.601Z,12.82
2022-09-12T02:33:51.860Z,12.85
2022-09-12T02:36:41.604Z,12.83
2022-09-12T02:39:08.395Z,12.85
2022-09-12T02:41:34.967Z,12.80
2022-09-12T02:44:03.448Z,12.79
2022-09-12T02:46:39.033Z,12.78
2022-09-12T02:49:05.607Z,12.77
2022-09-12T02:51:32.877Z,12.66
2022-09-12T02:53:59.748Z,12.68
2022-09-12T02:56:30.205Z,12.62
2022-09-12T02:59:02.423Z,12.69
2022-09-12T03:01:45.044Z,12.74
2022-09-12T03:04:41.079Z,12.78
2022-09-12T03:07:42.478Z,12.76
2022-09-12T03:10:30.970Z,12.80
2022-09-12T03:13:26.467Z,12.75
2022-09-12T03:16:31.209Z,12.77
2022-09-12T03:19:14.660Z,12.77
2022-09-12T03:21:56.677Z,12.73
2022-09-12T03:24:41.940Z,12.74
2022-09-12T03:27:17.455Z,12.73
2022-09-12T03:29:47.827Z,12.67
2022-09-12T03:32:14.765Z,12.66
2022-09-12T03:34:41.131Z,12.67
2022-09-12T03:37:07.494Z,12.63
2022-09-12T03:39:33.928Z,12.57
2022-09-12T03:42:00.338Z,12.56
2022-09-12T03:44:26.760Z,12.56
2022-09-12T03:46:53.143Z,12.41
2022-09-12T03:49:19.494Z,12.62
2022-09-12T03:51:45.897Z,12.63
2022-09-12T03:54:12.327Z,12.63
2022-09-12T03:56:39.171Z,12.54
2022-09-12T03:59:06.777Z,12.66
2022-09-12T04:01:33.604Z,12.54
2022-09-12T04:04:00.216Z,12.65
2022-09-12T04:06:26.672Z,12.63
2022-09-12T04:08:54.646Z,12.63
2022-09-12T04:11:22.657Z,12.56
2022-09-12T04:13:49.383Z,12.52
2022-09-12T04:16:17.346Z,12.45
2022-09-12T04:18:44.538Z,12.57
2022-09-12T04:21:14.313Z,12.53
2022-09-12T04:23:40.743Z,12.53
2022-09-12T04:26:07.811Z,12.47
2022-09-12T04:28:35.908Z,12.48
2022-09-12T04:31:07.966Z,12.51
2022-09-12T04:33:37.288Z,12.47
2022-09-12T04:36:09.261Z,12.44
2022-09-12T04:38:36.732Z,12.46
2022-09-12T04:41:14.487Z,12.49
2022-09-12T04:43:41.343Z,12.41
2022-09-12T04:46:09.466Z,12.40
2022-09-12T04:48:36.120Z,12.42
2022-09-12T04:51:10.332Z,12.42
2022-09-12T04:53:37.538Z,12.41
2022-09-12T04:56:10.892Z,12.40
2022-09-12T04:58:37.871Z,12.44
2022-09-12T05:01:09.579Z,12.49
2022-09-12T05:03:38.983Z,12.47
2022-09-12T05:06:10.663Z,12.52
2022-09-12T05:08:37.087Z,12.53
2022-09-12T05:11:05.936Z,12.62
2022-09-12T05:13:33.928Z,12.70
2022-09-12T05:16:02.500Z,12.72
2022-09-12T05:18:31.872Z,12.71
2022-09-12T05:21:03.801Z,12.73
2022-09-12T05:23:30.872Z,12.74
2022-09-12T05:25:58.594Z,12.82
2022-09-12T05:28:29.188Z,12.79
2022-09-12T05:31:07.395Z,12.95
2022-09-12T05:33:36.064Z,13.07
2022-09-12T05:36:04.507Z,13.12
2022-09-12T05:38:30.919Z,13.19
2022-09-12T05:41:17.505Z,13.32
2022-09-12T05:43:46.135Z,13.32
2022-09-12T05:46:17.985Z,13.44
2022-09-12T05:48:47.086Z,13.43
2022-09-12T05:51:20.205Z,13.57
2022-09-12T05:53:49.076Z,13.72
2022-09-12T05:56:18.372Z,13.90
2022-09-12T05:58:47.510Z,13.88
2022-09-12T06:01:18.248Z,14.15
2022-09-12T06:03:47.575Z,14.17
2022-09-12T06:06:15.603Z,14.17
2022-09-12T06:08:44.454Z,14.23
2022-09-12T06:11:14.450Z,14.30
2022-09-12T06:13:42.298Z,14.33
2022-09-12T06:16:18.755Z,14.32
2022-09-12T06:19:07.003Z,14.25
2022-09-12T06:21:37.802Z,14.33
2022-09-12T06:24:04.380Z,14.43
2022-09-12T06:26:30.975Z,14.42
2022-09-12T06:28:59.566Z,14.49
2022-09-12T06:31:29.598Z,14.58
2022-09-12T06:33:59.132Z,14.67
2022-09-12T06:36:31.265Z,14.79
2022-09-12T06:39:04.503Z,14.82
2022-09-12T06:41:32.060Z,14.82
2022-09-12T06:43:59.439Z,14.93
2022-09-12T06:46:27.270Z,15.11
2022-09-12T06:48:55.938Z,15.13
2022-09-12T06:51:22.284Z,15.18
2022-09-12T06:53:49.243Z,15.30
2022-09-12T06:56:20.239Z,15.24
2022-09-12T06:58:48.610Z,15.36
2022-09-12T07:01:23.208Z,15.50
2022-09-12T07:03:52.514Z,15.54
2022-09-12T07:06:21.101Z,15.60
2022-09-12T07:08:48.040Z,15.54
2022-09-12T07:11:20.780Z,15.72
2022-09-12T07:13:49.635Z,15.81
2022-09-12T07:16:19.662Z,15.82
2022-09-12T07:18:51.438Z,15.89
2022-09-12T07:21:17.782Z,15.95
2022-09-12T07:23:44.823Z,16.04
2022-09-12T07:26:13.056Z,16.14
2022-09-12T07:28:40.054Z,16.10
2022-09-12T07:31:07.442Z,16.16
2022-09-12T07:33:34.092Z,16.21
2022-09-12T07:36:05.627Z,16.26
2022-09-12T07:38:32.484Z,16.21
2022-09-12T07:40:58.950Z,16.23
2022-09-12T07:43:25.459Z,16.42
2022-09-12T07:45:56.358Z,16.41
2022-09-12T07:48:23.063Z,16.48
2022-09-12T07:51:01.198Z,16.56
2022-09-12T07:53:32.039Z,16.71
2022-09-12T07:55:58.537Z,16.78
2022-09-12T07:58:25.235Z,16.85
2022-09-12T08:00:51.880Z,17.01
2022-09-12T08:03:18.397Z,17.12
2022-09-12T08:05:45.036Z,17.42
2022-09-12T08:08:11.431Z,17.50
2022-09-12T08:10:37.840Z,17.80
2022-09-12T08:13:04.200Z,17.89
2022-09-12T08:15:31.483Z,18.00
2022-09-12T08:17:57.874Z,17.96
2022-09-12T08:20:28.150Z,18.17
2022-09-12T08:22:54.831Z,18.15
2022-09-12T08:25:21.336Z,17.99
2022-09-12T08:27:48.303Z,17.76
2022-09-12T08:30:14.781Z,17.76
2022-09-12T08:32:41.123Z,17.73
2022-09-12T08:35:08.036Z,17.78
2022-09-12T08:37:34.440Z,17.55
2022-09-12T08:40:00.929Z,17.80
2022-09-12T08:42:56.932Z,17.82
2022-09-12T08:45:34.690Z,18.13
2022-09-12T08:48:04.291Z,18.25
2022-09-12T08:50:30.947Z,18.35
2022-09-12T08:53:12.387Z,18.30
2022-09-12T08:55:42.897Z,18.54
2022-09-12T08:58:20.197Z,18.89
2022-09-12T09:01:22.185Z,19.41
2022-09-12T09:04:01.384Z,19.55
2022-09-12T09:06:39.827Z,19.55
2022-09-12T09:09:30.933Z,19.21
2022-09-12T09:12:06.666Z,19.08
2022-09-12T09:15:13.249Z,19.20
2022-09-12T09:17:45.247Z,19.20
2022-09-12T09:20:27.821Z,18.84
2022-09-12T09:23:20.686Z,18.62
2022-09-12T09:26:08.815Z,18.85
2022-09-12T09:28:49.790Z,19.15
2022-09-12T09:31:18.423Z,18.93
2022-09-12T09:33:47.829Z,19.05
2022-09-12T09:36:20.549Z,19.12
2022-09-12T09:38:54.348Z,19.42
2022-09-12T09:41:31.219Z,19.48
2022-09-12T09:43:58.662Z,19.36
2022-09-12T09:46:25.438Z,19.57
2022-09-12T09:48:52.966Z,19.53
2022-09-12T09:51:26.014Z,19.42
2022-09-12T09:54:01.606Z,19.78
2022-09-12T09:56:30.568Z,19.95
2022-09-12T09:58:57.063Z,20.54
2022-09-12T10:01:24.587Z,20.77
2022-09-12T10:03:55.201Z,21.40
2022-09-12T10:06:37.910Z,21.53
2022-09-12T10:09:19.136Z,21.62
2022-09-12T10:11:47.806Z,22.04
2022-09-12T10:14:35.067Z,22.36
2022-09-12T10:17:04.085Z,22.41
2022-09-12T10:19:39.524Z,22.12
2022-09-12T10:22:07.320Z,22.46
2022-09-12T10:24:42.107Z,22.49
2022-09-12T10:27:11.583Z,22.91
2022-09-12T10:30:06.440Z,23.23
2022-09-12T10:32:41.202Z,23.53
2022-09-12T10:35:18.651Z,23.45
2022-09-12T10:37:55.584Z,23.99
2022-09-12T10:40:28.264Z,24.11
2022-09-12T10:42:59.509Z,24.19
2022-09-12T10:45:37.513Z,23.75
2022-09-12T10:48:33.491Z,24.14
2022-09-12T10:51:01.980Z,24.58
2022-09-12T10:53:34.685Z,23.94
2022-09-12T10:56:06.997Z,24.31
2022-09-12T10:58:53.662Z,24.59
2022-09-12T11:01:28.184Z,24.67
2022-09-12T11:04:22.260Z,24.15
2022-09-12T11:07:13.406Z,24.05
2022-09-12T11:09:50.103Z,24.01
2022-09-12T11:12:31.468Z,24.61
2022-09-12T11:15:17.102Z,24.95
2022-09-12T11:17:58.647Z,24.21
2022-09-12T11:20:43.235Z,25.17
2022-09-12T11:23:48.314Z,25.37
2022-09-12T11:26:20.971Z,25.08
2022-09-12T11:28:59.307Z,24.95
2022-09-12T11:31:34.855Z,25.35
2022-09-12T11:34:09.023Z,25.89
2022-09-12T11:36:47.252Z,25.97
2022-09-12T11:39:16.508Z,25.90
2022-09-12T11:41:52.207Z,25.70
2022-09-12T11:44:28.496Z,25.57
2022-09-12T11:46:54.996Z,25.49
2022-09-12T11:49:41.688Z,26.10
2022-09-12T11:52:15.818Z,26.09
2022-09-12T11:55:07.538Z,26.39
2022-09-12T11:57:43.043Z,26.23
2022-09-12T12:00:19.882Z,25.42
2022-09-12T12:03:26.674Z,26.41
2022-09-12T12:06:10.344Z,26.37
2022-09-12T12:08:43.354Z,26.17
2022-09-12T12:11:12.130Z,25.92
2022-09-12T12:13:46.694Z,25.65
2022-09-12T12:16:19.638Z,25.59
2022-09-12T12:18:46.339Z,26.14
2022-09-12T12:21:33.693Z,26.31
2022-09-12T12:24:08.991Z,26.20
2022-09-12T12:26:41.382Z,26.28
2022-09-12T12:29:16.760Z,26.72
2022-09-12T12:31:59.078Z,26.48
2022-09-12T12:34:35.555Z,26.34
2022-09-12T12:37:20.326Z,26.64
2022-09-12T12:39:50.369Z,26.00
2022-09-12T12:42:35.037Z,25.80
2022-09-12T12:45:24.431Z,26.29
2022-09-12T12:47:56.610Z,26.38
2022-09-12T12:50:26.579Z,26.43
2022-09-12T12:52:58.877Z,26.25
2022-09-12T12:55:35.082Z,26.53
2022-09-12T12:58:03.513Z,26.78
2022-09-12T13:00:36.650Z,26.24
2022-09-12T13:03:08.869Z,26.58
2022-09-12T13:05:46.257Z,27.05
2022-09-12T13:08:18.344Z,26.88
2022-09-12T13:10:53.583Z,26.96
2022-09-12T13:13:51.970Z,26.85
2022-09-12T13:16:35.477Z,26.69
2022-09-12T13:19:06.157Z,26.22
2022-09-12T13:21:32.570Z,26.25
2022-09-12T13:24:02.566Z,26.03
2022-09-12T13:26:34.879Z,25.57
2022-09-12T13:29:12.671Z,25.94
2022-09-12T13:31:43.153Z,25.94
2022-09-12T13:34:20.903Z,25.92
2022-09-12T13:36:55.064Z,25.28
2022-09-12T13:40:05.733Z,25.50
2022-09-12T13:42:39.288Z,25.74
2022-09-12T13:45:28.889Z,26.20
2022-09-12T13:47:59.772Z,25.98
2022-09-12T13:50:31.762Z,25.96
2022-09-12T13:53:05.874Z,25.90
2022-09-12T13:55:36.325Z,26.10
2022-09-12T13:58:20.941Z,25.93
2022-09-12T14:00:59.613Z,25.79
2022-09-12T14:03:51.553Z,25.46
2022-09-12T14:06:20.014Z,25.63
2022-09-12T14:08:48.165Z,25.48
2022-09-12T14:11:27.455Z,25.93
2022-09-12T14:13:56.099Z,25.60
2022-09-12T14:16:24.076Z,25.44
2022-09-12T14:18:54.526Z,25.13
2022-09-12T14:21:34.440Z,25.28
2022-09-12T14:24:03.527Z,24.95
2022-09-12T14:26:34.435Z,25.16
2022-09-12T14:29:04.915Z,25.10
2022-09-12T14:31:35.292Z,25.19
2022-09-12T14:34:28.583Z,24.83
2022-09-12T14:36:57.138Z,24.87
2022-09-12T14:39:45.474Z,24.78
2022-09-12T14:42:15.112Z,24.62
2022-09-12T14:44:52.019Z,24.77
2022-09-12T14:47:22.661Z,24.76
2022-09-12T14:49:51.672Z,24.67
2022-09-12T14:52:23.340Z,24.67
2022-09-12T14:55:00.157Z,24.60
2022-09-12T14:57:36.729Z,24.41
2022-09-12T15:00:12.191Z,24.49
2022-09-12T15:02:40.159Z,24.39
2022-09-12T15:05:06.462Z,24.18
2022-09-12T15:07:41.415Z,24.16
2022-09-12T15:10:22.011Z,24.27
2022-09-12T15:12:49.086Z,24.56
2022-09-12T15:15:20.902Z,24.73
2022-09-12T15:17:47.295Z,24.72
2022-09-12T15:20:13.989Z,24.80
2022-09-12T15:22:41.883Z,24.64
2022-09-12T15:25:10.915Z,24.44
2022-09-12T15:27:40.747Z,24.35
2022-09-12T15:30:09.751Z,24.20
2022-09-12T15:32:36.960Z,24.40
2022-09-12T15:35:03.711Z,24.18
2022-09-12T15:37:31.009Z,24.00
2022-09-12T15:39:57.567Z,24.10
2022-09-12T15:42:29.185Z,24.31
2022-09-12T15:44:58.409Z,24.37
2022-09-12T15:47:26.971Z,24.27
2022-09-12T15:49:53.341Z,24.03
2022-09-12T15:52:19.728Z,24.11
2022-09-12T15:54:46.061Z,24.11
2022-09-12T15:57:12.440Z,24.39
2022-09-12T15:59:38.783Z,24.43
2022-09-12T16:02:05.247Z,24.46
2022-09-12T16:04:31.809Z,24.41
2022-09-12T16:06:58.419Z,24.16
2022-09-12T16:09:24.893Z,24.17
2022-09-12T16:11:51.756Z,23.89
2022-09-12T16:14:19.554Z,23.79
2022-09-12T16:16:52.753Z,23.84
2022-09-12T16:19:19.526Z,23.82
2022-09-12T16:21:46.217Z,23.82
2022-09-12T16:24:12.596Z,23.61
2022-09-12T16:26:39.049Z,23.65
2022-09-12T16:29:05.391Z,23.62
2022-09-12T16:31:31.931Z,23.76
2022-09-12T16:33:58.346Z,23.60
2022-09-12T16:36:24.874Z,23.48
2022-09-12T16:38:53.551Z,23.28
2022-09-12T16:41:22.373Z,23.41
2022-09-12T16:43:48.976Z,23.11
2022-09-12T16:46:19.040Z,23.10
2022-09-12T16:48:52.043Z,23.01
2022-09-12T16:51:22.480Z,22.98
2022-09-12T16:53:49.381Z,22.77
2022-09-12T16:56:15.810Z,22.65
2022-09-12T16:58:43.123Z,22.58
2022-09-12T17:01:15.570Z,22.50
2022-09-12T17:03:42.709Z,22.24
2022-09-12T17:06:10.747Z,22.21
2022-09-12T17:08:39.737Z,22.17
2022-09-12T17:11:15.330Z,22.15
2022-09-12T17:14:03.829Z,22.09
2022-09-12T17:16:32.623Z,21.95
2022-09-12T17:18:59.139Z,21.86
2022-09-12T17:21:25.895Z,21.78
2022-09-12T17:23:52.378Z,21.66
2022-09-12T17:26:18.727Z,21.60
2022-09-12T17:28:45.135Z,21.55
2022-09-12T17:31:14.347Z,21.59
2022-09-12T17:33:41.808Z,21.38
2022-09-12T17:36:11.939Z,21.49
2022-09-12T17:38:39.731Z,21.44
2022-09-12T17:41:27.262Z,21.21
2022-09-12T17:43:57.099Z,21.16
2022-09-12T17:46:26.325Z,21.14
2022-09-12T17:48:54.652Z,20.92
2022-09-12T17:51:22.351Z,20.85
2022-09-12T17:53:48.917Z,20.84
2022-09-12T17:56:15.608Z,20.83
2022-09-12T17:58:42.083Z,20.72
2022-09-12T18:01:32.491Z,20.49
2022-09-12T18:04:01.527Z,20.26
2022-09-12T18:06:30.540Z,20.28
2022-09-12T18:09:04.767Z,20.10
2022-09-12T18:11:31.361Z,20.15
2022-09-12T18:13:59.105Z,20.08
2022-09-12T18:16:26.342Z,20.04
2022-09-12T18:18:52.778Z,20.01
2022-09-12T18:21:19.756Z,19.87
2022-09-12T18:23:47.240Z,19.87
2022-09-12T18:26:14.206Z,19.84
2022-09-12T18:28:42.857Z,19.85
2022-09-12T18:31:15.766Z,19.89
2022-09-12T18:33:42.902Z,19.91
2022-09-12T18:36:11.834Z,19.83
2022-09-12T18:38:39.334Z,19.75
2022-09-12T18:41:10.780Z,19.72
2022-09-12T18:43:37.769Z,19.54
2022-09-12T18:46:16.600Z,19.52
2022-09-12T18:48:44.989Z,19.28
2022-09-12T18:51:17.841Z,19.13
2022-09-12T18:53:49.355Z,19.19
2022-09-12T18:56:15.759Z,19.15
2022-09-12T18:58:43.659Z,19.08
2022-09-12T19:01:17.941Z,19.07
2022-09-12T19:03:45.541Z,19.15
2022-09-12T19:06:17.513Z,19.25
2022-09-12T19:08:44.525Z,19.31
2022-09-12T19:11:11.721Z,19.37
2022-09-12T19:13:40.389Z,19.35
2022-09-12T19:16:10.731Z,19.27
2022-09-12T19:18:39.196Z,19.31
2022-09-12T19:21:07.255Z,19.31
2022-09-12T19:23:35.273Z,19.29
2022-09-12T19:26:04.940Z,19.23
2022-09-12T19:28:32.112Z,19.18
2022-09-12T19:30:58.629Z,19.10
2022-09-12T19:33:25.839Z,19.09
2022-09-12T19:35:52.288Z,19.01
2022-09-12T19:38:18.957Z,19.16
2022-09-12T19:40:54.909Z,19.10
2022-09-12T19:43:21.276Z,19.09
2022-09-12T19:45:48.255Z,19.15
2022-09-12T19:48:14.628Z,19.10
2022-09-12T19:50:40.959Z,19.02
2022-09-12T19:53:07.395Z,18.93
2022-09-12T19:55:35.362Z,18.98
2022-09-12T19:58:03.053Z,18.95
2022-09-12T20:00:29.568Z,18.91
2022-09-12T20:02:55.922Z,18.84
2022-09-12T20:05:22.293Z,18.82
2022-09-12T20:07:48.775Z,18.83
2022-09-12T20:10:15.614Z,18.82
2022-09-12T20:12:42.119Z,18.85
2022-09-12T20:15:09.577Z,18.90
2022-09-12T20:17:36.376Z,18.94
2022-09-12T20:20:03.859Z,19.02
2022-09-12T20:22:30.430Z,19.05
2022-09-12T20:24:56.855Z,19.01
2022-09-12T20:27:23.254Z,19.09
2022-09-12T20:29:49.674Z,19.17
2022-09-12T20:32:16.363Z,19.17
2022-09-12T20:34:42.704Z,19.12
2022-09-12T20:37:09.071Z,19.11
2022-09-12T20:39:35.647Z,19.08
2022-09-12T20:42:02.080Z,18.96
2022-09-12T20:44:30.139Z,18.99
2022-09-12T20:46:56.872Z,19.11
2022-09-12T20:49:25.895Z,19.10
2022-09-12T20:51:52.329Z,19.12
2022-09-12T20:54:18.697Z,19.15
2022-09-12T20:56:45.063Z,19.12
2022-09-12T20:59:12.181Z,18.99
2022-09-12T21:01:39.149Z,18.63
2022-09-12T21:04:05.600Z,18.61
2022-09-12T21:06:32.056Z,18.68
2022-09-12T21:08:59.735Z,18.43
2022-09-12T21:11:27.431Z,18.31
2022-09-12T21:13:54.256Z,18.17
2022-09-12T21:16:22.502Z,18.03
2022-09-12T21:18:59.333Z,18.01
2022-09-12T21:21:26.283Z,18.07
2022-09-12T21:23:55.118Z,18.13
2022-09-12T21:26:21.472Z,18.12
2022-09-12T21:28:48.212Z,18.18
2022-09-12T21:31:14.643Z,18.17
2022-09-12T21:33:41.097Z,18.20
2022-09-12T21:36:08.184Z,18.16
2022-09-12T21:38:35.105Z,18.10
2022-09-12T21:41:16.294Z,17.95
2022-09-12T21:43:43.456Z,18.04
2022-09-12T21:46:11.148Z,18.19
2022-09-12T21:48:37.695Z,18.00
2022-09-12T21:51:04.358Z,17.97
2022-09-12T21:53:31.128Z,17.88
2022-09-12T21:56:15.803Z,17.82
2022-09-12T21:58:42.183Z,17.85
2022-09-12T22:01:11.676Z,17.81
2022-09-12T22:03:38.191Z,17.86
2022-09-12T22:06:06.111Z,17.86
2022-09-12T22:08:33.586Z,17.82
2022-09-12T22:11:02.228Z,17.89
2022-09-12T22:13:33.650Z,17.88
2022-09-12T22:16:02.876Z,17.66
2022-09-12T22:18:31.749Z,17.82
2022-09-12T22:21:01.589Z,17.70
2022-09-12T22:23:46.550Z,17.74
2022-09-12T22:26:13.971Z,17.81
2022-09-12T22:28:41.084Z,17.80
2022-09-12T22:31:11.698Z,17.77
2022-09-12T22:33:38.171Z,17.66
2022-09-12T22:36:05.582Z,17.62
2022-09-12T22:38:32.038Z,17.69
2022-09-12T22:40:59.155Z,17.57
2022-09-12T22:43:25.880Z,17.42
2022-09-12T22:45:52.262Z,17.72
2022-09-12T22:48:18.672Z,17.71
2022-09-12T22:50:45.690Z,17.78
2022-09-12T22:53:12.092Z,17.64
2022-09-12T22:55:38.477Z,17.56
2022-09-12T22:58:04.841Z,17.51
2022-09-12T23:00:31.259Z,17.45
2022-09-12T23:02:58.275Z,17.50
2022-09-12T23:05:24.726Z,17.48
2022-09-12T23:07:51.498Z,17.55
2022-09-12T23:10:17.907Z,17.61
2022-09-12T23:12:44.299Z,17.61
2022-09-12T23:15:13.599Z,17.43
2022-09-12T23:17:40.167Z,17.54
2022-09-12T23:20:07.119Z,17.52
2022-09-12T23:22:35.802Z,17.63
2022-09-12T23:25:02.172Z,17.70
2022-09-12T23:27:28.526Z,17.66
2022-09-12T23:29:54.936Z,17.73
2022-09-12T23:32:21.351Z,17.70
2022-09-12T23:34:48.297Z,17.72
2022-09-12T23:37:14.736Z,17.60
2022-09-12T23:39:42.312Z,17.58
2022-09-12T23:42:08.698Z,17.56
2022-09-12T23:44:35.068Z,17.55
2022-09-12T23:47:01.425Z,17.51
2022-09-12T23:49:27.750Z,17.46
2022-09-12T23:51:54.104Z,17.39
2022-09-12T23:54:20.434Z,17.28
2022-09-12T23:56:46.771Z,17.29
2022-09-12T23:59:13.128Z,17.21
